createdAt,value
2018-05-31T00:01:52.456Z,19.90
2018-05-31T00:04:27.798Z,19.90
2018-05-31T00:07:03.781Z,19.90
2018-05-31T00:09:42.788Z,19.80
2018-05-31T00:12:19.696Z,19.80
2018-05-31T00:14:56.549Z,19.70
2018-05-31T00:17:31.679Z,19.70
2018-05-31T00:20:07.550Z,19.70
2018-05-31T00:22:44.581Z,19.70
2018-05-31T00:25:20.267Z,19.60
2018-05-31T00:27:57.166Z,19.70
2018-05-31T00:30:33.188Z,19.60
2018-05-31T00:33:08.643Z,19.70
2018-05-31T00:35:48.245Z,19.70
2018-05-31T00:38:24.669Z,19.70
2018-05-31T00:41:00.334Z,19.70
2018-05-31T00:43:36.055Z,19.70
2018-05-31T00:46:12.117Z,19.70
2018-05-31T00:48:49.410Z,19.80
2018-05-31T00:51:25.702Z,19.80
2018-05-31T00:54:02.756Z,19.70
2018-05-31T00:56:38.196Z,19.70
2018-05-31T00:59:13.709Z,19.70
2018-05-31T01:01:50.574Z,19.70
2018-05-31T01:04:26.478Z,19.70
2018-05-31T01:07:03.024Z,19.80
2018-05-31T01:09:38.531Z,19.80
2018-05-31T01:12:15.957Z,19.80
2018-05-31T01:14:51.958Z,19.80
2018-05-31T01:17:27.907Z,19.80
2018-05-31T01:20:02.936Z,19.80
2018-05-31T01:22:38.681Z,19.80
2018-05-31T01:25:14.170Z,19.70
2018-05-31T01:27:50.283Z,19.80
2018-05-31T01:30:26.666Z,19.70
2018-05-31T01:33:03.887Z,19.70
2018-05-31T01:35:39.396Z,19.70
2018-05-31T01:38:27.123Z,19.80
2018-05-31T01:41:02.309Z,19.80
2018-05-31T01:43:38.999Z,19.70
2018-05-31T01:46:14.895Z,19.70
2018-05-31T01:48:49.933Z,19.70
2018-05-31T01:51:30.374Z,19.80
2018-05-31T01:54:05.888Z,19.70
2018-05-31T01:56:42.608Z,19.80
2018-05-31T01:59:21.487Z,19.80
2018-05-31T02:01:57.404Z,19.80
2018-05-31T02:04:33.055Z,19.80
2018-05-31T02:07:09.523Z,19.80
2018-05-31T02:09:46.460Z,19.90
2018-05-31T02:12:22.651Z,19.90
2018-05-31T02:14:58.305Z,19.90
2018-05-31T02:17:33.752Z,19.80
2018-05-31T02:20:09.868Z,19.80
2018-05-31T02:22:46.273Z,19.80
2018-05-31T02:25:23.157Z,19.70
2018-05-31T02:27:58.882Z,19.70
2018-05-31T02:30:33.732Z,19.70
2018-05-31T02:33:08.875Z,19.70
2018-05-31T02:35:44.249Z,19.70
2018-05-31T02:38:21.512Z,19.70
2018-05-31T02:40:58.537Z,19.70
2018-05-31T02:43:35.280Z,19.70
2018-05-31T02:46:10.586Z,19.70
2018-05-31T02:48:47.463Z,19.60
2018-05-31T02:51:23.296Z,19.60
2018-05-31T02:53:59.454Z,19.60
2018-05-31T02:56:34.884Z,19.60
2018-05-31T02:59:11.281Z,19.60
2018-05-31T03:01:47.062Z,19.60
2018-05-31T03:04:22.912Z,19.60
2018-05-31T03:06:58.192Z,19.60
2018-05-31T03:09:35.074Z,19.50
2018-05-31T03:12:11.534Z,19.50
2018-05-31T03:14:46.844Z,19.50
2018-05-31T03:17:22.185Z,19.40
2018-05-31T03:19:57.916Z,19.40
2018-05-31T03:22:34.991Z,19.40
2018-05-31T03:25:13.049Z,19.40
2018-05-31T03:27:48.674Z,19.40
2018-05-31T03:30:24.117Z,19.50
2018-05-31T03:32:59.568Z,19.50
2018-05-31T03:35:36.212Z,19.40
2018-05-31T03:38:12.448Z,19.40
2018-05-31T03:40:47.740Z,19.30
2018-05-31T03:43:22.979Z,19.30
2018-05-31T03:45:58.732Z,19.30
2018-05-31T03:48:33.975Z,19.30
2018-05-31T03:51:08.750Z,19.30
2018-05-31T03:53:44.246Z,19.40
2018-05-31T03:56:20.102Z,19.40
2018-05-31T03:58:55.346Z,19.40
2018-05-31T04:01:31.202Z,19.40
2018-05-31T04:04:07.870Z,19.30
2018-05-31T04:06:47.002Z,19.30
2018-05-31T04:09:22.446Z,19.30
2018-05-31T04:11:57.480Z,19.20
2018-05-31T04:14:32.972Z,19.40
2018-05-31T04:17:09.395Z,19.30
2018-05-31T04:19:45.048Z,19.30
2018-05-31T04:22:20.082Z,19.30
2018-05-31T04:24:55.428Z,19.50
2018-05-31T04:27:30.473Z,19.50
2018-05-31T04:30:06.727Z,19.50
2018-05-31T04:32:44.625Z,19.40
2018-05-31T04:35:19.660Z,19.40
2018-05-31T04:37:59.215Z,19.40
2018-05-31T04:40:35.773Z,19.30
2018-05-31T04:43:11.453Z,19.30
2018-05-31T04:45:47.115Z,19.30
2018-05-31T04:48:23.230Z,19.30
2018-05-31T04:50:58.981Z,19.30
2018-05-31T04:53:35.682Z,19.30
2018-05-31T04:56:11.108Z,19.30
2018-05-31T04:58:46.092Z,19.40
2018-05-31T05:01:22.091Z,19.40
2018-05-31T05:03:57.741Z,19.40
2018-05-31T05:06:33.291Z,19.50
2018-05-31T05:09:08.705Z,19.60
2018-05-31T05:11:43.564Z,19.60
2018-05-31T05:14:18.822Z,19.60
2018-05-31T05:16:54.660Z,19.70
2018-05-31T05:19:30.477Z,19.70
2018-05-31T05:22:05.545Z,19.70
2018-05-31T05:24:42.098Z,19.70
2018-05-31T05:27:18.494Z,19.70
2018-05-31T05:29:59.159Z,19.60
2018-05-31T05:32:42.950Z,19.60
2018-05-31T05:35:18.791Z,19.60
2018-05-31T05:37:54.497Z,19.60
2018-05-31T05:40:29.333Z,19.60
2018-05-31T05:43:04.985Z,19.70
2018-05-31T05:45:40.116Z,19.70
2018-05-31T05:48:14.945Z,19.70
2018-05-31T05:50:49.981Z,19.70
2018-05-31T05:53:25.019Z,19.80
2018-05-31T05:56:00.051Z,19.90
2018-05-31T05:58:35.468Z,20.00
2018-05-31T06:01:11.371Z,20.00
2018-05-31T06:03:47.826Z,20.10
2018-05-31T06:06:23.266Z,20.10
2018-05-31T06:08:58.914Z,20.20
2018-05-31T06:11:33.744Z,20.30
2018-05-31T06:14:09.198Z,20.40
2018-05-31T06:16:47.402Z,20.70
2018-05-31T06:19:22.921Z,20.70
2018-05-31T06:21:59.490Z,20.70
2018-05-31T06:24:34.770Z,20.70
2018-05-31T06:27:11.435Z,20.90
2018-05-31T06:29:46.215Z,21.00
2018-05-31T06:32:22.322Z,21.20
2018-05-31T06:34:57.562Z,21.20
2018-05-31T06:37:33.623Z,21.20
2018-05-31T06:40:09.012Z,21.30
2018-05-31T06:42:43.897Z,21.30
2018-05-31T06:45:19.639Z,21.10
2018-05-31T06:47:55.098Z,21.10
2018-05-31T06:50:30.956Z,21.20
2018-05-31T06:53:07.153Z,21.40
2018-05-31T06:55:43.270Z,21.40
2018-05-31T06:58:18.104Z,21.40
2018-05-31T07:00:53.144Z,21.40
2018-05-31T07:03:29.398Z,21.40
2018-05-31T07:06:05.872Z,21.30
2018-05-31T07:08:41.521Z,21.30
2018-05-31T07:11:18.410Z,21.50
2018-05-31T07:13:53.643Z,21.40
2018-05-31T07:16:29.290Z,20.50
2018-05-31T07:19:04.532Z,21.70
2018-05-31T07:21:39.770Z,21.90
2018-05-31T07:24:14.600Z,22.50
2018-05-31T07:26:49.636Z,23.20
2018-05-31T07:29:25.895Z,24.80
2018-05-31T07:32:00.931Z,25.60
2018-05-31T07:34:35.968Z,26.60
2018-05-31T07:37:11.842Z,27.80
2018-05-31T07:40:19.631Z,27.70
2018-05-31T07:46:33.033Z,27.80
2018-05-31T07:49:08.148Z,27.50
2018-05-31T07:51:42.966Z,28.50
2018-05-31T07:54:18.123Z,29.20
2018-05-31T07:56:53.222Z,30.00
2018-05-31T07:59:28.260Z,29.60
2018-05-31T08:02:03.290Z,30.10
2018-05-31T08:04:38.100Z,30.60
2018-05-31T08:07:14.131Z,30.00
2018-05-31T08:09:49.215Z,29.50
2018-05-31T08:12:24.868Z,29.20
2018-05-31T08:15:00.207Z,29.70
2018-05-31T08:17:36.784Z,29.80
2018-05-31T08:20:11.814Z,29.80
2018-05-31T08:22:48.091Z,29.20
2018-05-31T08:25:23.931Z,30.00
2018-05-31T08:27:59.990Z,29.90
2018-05-31T08:30:36.356Z,30.80
2018-05-31T08:33:12.523Z,29.70
2018-05-31T08:35:47.588Z,29.60
2018-05-31T08:38:23.203Z,29.50
2018-05-31T08:40:58.854Z,29.10
2018-05-31T08:43:34.308Z,29.70
2018-05-31T08:46:09.436Z,30.20
2018-05-31T08:48:45.498Z,30.40
2018-05-31T08:51:21.352Z,30.00
2018-05-31T08:53:56.281Z,30.30
2018-05-31T08:56:32.545Z,29.50
2018-05-31T08:59:07.584Z,30.00
2018-05-31T09:01:42.619Z,30.10
2018-05-31T09:04:18.991Z,30.10
2018-05-31T09:06:54.575Z,30.60
2018-05-31T09:09:30.621Z,30.80
2018-05-31T09:12:06.853Z,30.10
2018-05-31T09:14:41.894Z,30.10
2018-05-31T09:17:17.132Z,30.30
2018-05-31T09:19:52.571Z,30.30
2018-05-31T09:22:27.401Z,30.40
2018-05-31T09:25:02.440Z,30.50
2018-05-31T09:27:37.477Z,30.30
2018-05-31T09:30:12.550Z,30.30
2018-05-31T09:32:47.447Z,30.70
2018-05-31T09:35:24.114Z,30.80
2018-05-31T09:38:00.584Z,30.80
2018-05-31T09:40:36.139Z,30.80
2018-05-31T09:43:12.091Z,30.80
2018-05-31T09:45:46.930Z,30.80
2018-05-31T09:48:21.953Z,31.00
2018-05-31T09:50:57.605Z,30.40
2018-05-31T09:53:33.050Z,30.40
2018-05-31T09:56:08.699Z,30.40
2018-05-31T09:58:44.247Z,31.20
2018-05-31T10:01:19.179Z,31.50
2018-05-31T10:03:54.421Z,30.90
2018-05-31T10:06:29.661Z,30.70
2018-05-31T10:09:06.329Z,30.70
2018-05-31T10:11:43.272Z,31.80
2018-05-31T10:14:19.787Z,31.60
2018-05-31T10:16:55.224Z,31.60
2018-05-31T10:19:30.415Z,31.60
2018-05-31T10:22:05.932Z,31.10
2018-05-31T10:24:40.740Z,29.90
2018-05-31T10:27:15.926Z,31.10
2018-05-31T10:29:51.272Z,31.10
2018-05-31T10:32:27.179Z,30.40
2018-05-31T10:35:02.431Z,30.50
2018-05-31T10:37:40.116Z,31.40
2018-05-31T10:40:15.976Z,31.40
2018-05-31T10:42:51.421Z,31.30
2018-05-31T10:45:26.597Z,31.10
2018-05-31T10:48:01.488Z,31.60
2018-05-31T10:50:36.787Z,31.40
2018-05-31T10:53:12.174Z,31.20
2018-05-31T10:55:47.729Z,30.90
2018-05-31T10:58:22.554Z,30.00
2018-05-31T11:00:58.007Z,29.90
2018-05-31T11:03:34.048Z,30.80
2018-05-31T11:06:10.108Z,30.80
2018-05-31T11:08:46.372Z,30.70
2018-05-31T11:11:21.550Z,30.70
2018-05-31T11:13:56.443Z,30.50
2018-05-31T11:16:32.186Z,30.70
2018-05-31T11:19:07.537Z,30.80
2018-05-31T11:21:42.794Z,30.80
2018-05-31T11:24:17.815Z,30.50
2018-05-31T11:26:52.847Z,30.70
2018-05-31T11:29:28.297Z,31.50
2018-05-31T11:32:03.737Z,31.60
2018-05-31T11:34:38.826Z,31.60
2018-05-31T11:37:14.576Z,30.80
2018-05-31T11:39:49.460Z,31.10
2018-05-31T11:42:25.110Z,31.40
2018-05-31T11:45:02.195Z,31.60
2018-05-31T11:47:37.430Z,32.00
2018-05-31T11:50:13.080Z,32.00
2018-05-31T11:52:48.321Z,30.50
2018-05-31T11:55:23.354Z,30.80
2018-05-31T11:57:59.414Z,31.70
2018-05-31T12:00:34.701Z,31.70
2018-05-31T12:03:10.303Z,32.10
2018-05-31T12:05:45.338Z,32.40
2018-05-31T12:08:21.006Z,31.30
2018-05-31T12:10:57.048Z,31.10
2018-05-31T12:13:33.515Z,31.60
2018-05-31T12:16:08.963Z,31.50
2018-05-31T12:18:44.814Z,31.50
2018-05-31T12:21:20.880Z,31.30
2018-05-31T12:23:56.063Z,31.30
2018-05-31T12:26:31.151Z,31.50
2018-05-31T12:29:08.451Z,31.10
2018-05-31T12:31:43.682Z,31.10
2018-05-31T12:34:18.711Z,30.10
2018-05-31T12:36:54.057Z,29.80
2018-05-31T12:39:30.369Z,28.40
2018-05-31T12:42:05.465Z,28.40
2018-05-31T12:44:40.493Z,29.20
2018-05-31T12:47:15.730Z,30.00
2018-05-31T12:49:50.769Z,30.60
2018-05-31T12:52:26.268Z,31.00
2018-05-31T12:55:02.683Z,30.80
2018-05-31T12:57:37.870Z,30.70
2018-05-31T13:00:15.363Z,29.30
2018-05-31T13:02:50.451Z,29.20
2018-05-31T13:05:25.694Z,28.00
2018-05-31T13:08:01.567Z,26.80
2018-05-31T13:10:36.986Z,26.20
2018-05-31T13:13:12.228Z,25.90
2018-05-31T13:15:47.266Z,25.70
2018-05-31T13:18:22.915Z,25.80
2018-05-31T13:20:58.152Z,25.90
2018-05-31T13:23:34.006Z,25.80
2018-05-31T13:26:09.040Z,25.80
2018-05-31T13:28:44.695Z,25.70
2018-05-31T13:31:19.402Z,25.90
2018-05-31T13:33:54.927Z,25.60
2018-05-31T13:36:30.411Z,25.60
2018-05-31T13:39:06.470Z,25.30
2018-05-31T13:41:41.670Z,25.30
2018-05-31T13:44:16.750Z,25.30
2018-05-31T13:46:51.782Z,25.00
2018-05-31T13:49:27.026Z,25.20
2018-05-31T13:52:02.054Z,25.20
2018-05-31T13:54:37.254Z,24.90
2018-05-31T13:57:12.125Z,24.90
2018-05-31T13:59:47.574Z,24.70
2018-05-31T14:02:23.220Z,24.70
2018-05-31T14:04:58.254Z,24.60
2018-05-31T14:07:33.903Z,24.60
2018-05-31T14:10:09.354Z,24.80
2018-05-31T14:12:45.203Z,25.10
2018-05-31T14:15:20.396Z,25.00
2018-05-31T14:17:56.290Z,24.80
2018-05-31T14:20:32.220Z,25.10
2018-05-31T14:23:08.211Z,25.10
2018-05-31T14:25:43.561Z,25.10
2018-05-31T14:28:18.691Z,25.20
2018-05-31T14:30:53.733Z,25.00
2018-05-31T14:33:28.558Z,25.10
2018-05-31T14:36:04.212Z,24.90
2018-05-31T14:38:39.036Z,24.80
2018-05-31T14:41:15.531Z,25.00
2018-05-31T14:43:51.366Z,25.00
2018-05-31T14:46:27.222Z,25.00
2018-05-31T14:49:02.912Z,24.80
2018-05-31T14:51:38.925Z,24.60
2018-05-31T14:54:14.372Z,24.60
2018-05-31T14:56:49.451Z,24.80
2018-05-31T14:59:24.542Z,24.60
2018-05-31T15:01:59.994Z,24.40
2018-05-31T15:04:35.844Z,24.30
2018-05-31T15:07:10.875Z,24.20
2018-05-31T15:09:46.679Z,24.20
2018-05-31T15:12:24.333Z,24.00
2018-05-31T15:15:03.969Z,24.00
2018-05-31T15:17:39.412Z,24.20
2018-05-31T15:20:14.558Z,24.40
2018-05-31T15:22:50.337Z,24.40
2018-05-31T15:25:26.305Z,24.30
2018-05-31T15:28:02.130Z,24.20
2018-05-31T15:30:37.675Z,24.20
2018-05-31T15:33:12.904Z,24.20
2018-05-31T15:35:49.010Z,24.20
2018-05-31T15:38:24.303Z,23.90
2018-05-31T15:40:59.753Z,24.00
2018-05-31T15:43:34.989Z,24.20
2018-05-31T15:46:11.353Z,24.10
2018-05-31T15:48:46.903Z,24.20
2018-05-31T15:51:21.730Z,24.00
2018-05-31T15:53:56.974Z,24.00
2018-05-31T15:56:32.112Z,24.00
2018-05-31T15:59:07.761Z,24.00
2018-05-31T16:01:44.033Z,24.30
2018-05-31T16:04:19.263Z,24.30
2018-05-31T16:06:55.122Z,24.40
2018-05-31T16:09:30.573Z,24.10
2018-05-31T16:12:05.903Z,23.80
2018-05-31T16:14:41.147Z,23.60
2018-05-31T16:17:17.421Z,23.70
2018-05-31T16:19:53.167Z,23.60
2018-05-31T16:22:28.399Z,23.60
2018-05-31T16:25:03.651Z,23.50
2018-05-31T16:27:38.829Z,23.70
2018-05-31T16:30:13.897Z,23.90
2018-05-31T16:32:50.384Z,23.90
2018-05-31T16:35:26.448Z,23.80
2018-05-31T16:38:01.480Z,23.80
2018-05-31T16:40:36.516Z,23.60
2018-05-31T16:43:11.756Z,23.70
2018-05-31T16:45:47.551Z,23.60
2018-05-31T16:48:22.815Z,23.60
2018-05-31T16:50:57.676Z,23.60
2018-05-31T16:53:32.655Z,23.50
2018-05-31T16:56:08.372Z,23.30
2018-05-31T16:58:43.814Z,23.30
2018-05-31T17:01:18.783Z,23.10
2018-05-31T17:03:53.877Z,23.20
2018-05-31T17:06:29.116Z,23.10
2018-05-31T17:09:04.569Z,23.10
2018-05-31T17:11:40.213Z,23.10
2018-05-31T17:14:15.250Z,23.20
2018-05-31T17:16:50.281Z,23.10
2018-05-31T17:19:26.145Z,23.20
2018-05-31T17:22:01.977Z,23.20
2018-05-31T17:24:37.030Z,23.00
2018-05-31T17:27:12.264Z,23.00
2018-05-31T17:29:47.861Z,22.90
2018-05-31T17:32:23.158Z,22.90
2018-05-31T17:34:57.989Z,22.90
2018-05-31T17:37:35.069Z,22.80
2018-05-31T17:40:10.419Z,22.70
2018-05-31T17:42:46.789Z,22.70
2018-05-31T17:45:22.018Z,22.60
2018-05-31T17:47:58.026Z,22.60
2018-05-31T17:50:34.835Z,22.70
2018-05-31T17:53:10.399Z,22.70
2018-05-31T17:55:45.588Z,22.70
2018-05-31T17:58:20.476Z,22.40
2018-05-31T18:00:55.505Z,22.50
2018-05-31T18:03:32.187Z,22.30
2018-05-31T18:06:07.827Z,22.30
2018-05-31T18:08:43.684Z,22.30
2018-05-31T18:11:19.338Z,22.30
2018-05-31T18:13:55.188Z,22.20
2018-05-31T18:16:31.458Z,22.20
2018-05-31T18:19:06.289Z,22.20
2018-05-31T18:21:42.129Z,22.40
2018-05-31T18:24:18.196Z,22.50
2018-05-31T18:26:53.643Z,22.50
2018-05-31T18:29:29.857Z,22.40
2018-05-31T18:32:05.760Z,22.50
2018-05-31T18:34:41.215Z,22.40
2018-05-31T18:37:18.284Z,22.00
2018-05-31T18:39:53.245Z,22.00
2018-05-31T18:42:29.587Z,22.00
2018-05-31T18:45:05.438Z,21.90
2018-05-31T18:47:41.098Z,22.10
2018-05-31T18:50:16.060Z,22.00
2018-05-31T18:52:51.159Z,22.00
2018-05-31T18:55:26.813Z,21.80
2018-05-31T18:58:01.848Z,21.80
2018-05-31T19:00:38.725Z,22.00
2018-05-31T19:03:13.982Z,22.00
2018-05-31T19:05:50.023Z,21.90
2018-05-31T19:08:25.670Z,21.70
2018-05-31T19:11:00.499Z,21.80
2018-05-31T19:13:41.482Z,21.90
2018-05-31T19:16:16.927Z,21.80
2018-05-31T19:18:58.323Z,21.70
2018-05-31T19:21:33.346Z,21.60
2018-05-31T19:24:15.754Z,21.60
2018-05-31T19:26:50.578Z,21.70
2018-05-31T19:29:25.819Z,21.60
2018-05-31T19:32:01.679Z,21.70
2018-05-31T19:34:37.711Z,21.70
2018-05-31T19:37:14.202Z,21.90
2018-05-31T19:39:49.868Z,21.80
2018-05-31T19:42:32.007Z,22.00
2018-05-31T19:45:09.162Z,21.90
2018-05-31T19:47:44.991Z,21.90
2018-05-31T19:50:20.038Z,21.90
2018-05-31T19:53:00.798Z,21.70
2018-05-31T19:55:36.448Z,21.70
2018-05-31T19:58:17.022Z,21.70
2018-05-31T20:00:58.132Z,21.70
2018-05-31T20:03:34.660Z,21.40
2018-05-31T20:06:09.477Z,21.50
2018-05-31T20:08:44.730Z,21.60
2018-05-31T20:11:21.369Z,21.60
2018-05-31T20:13:58.813Z,21.60
2018-05-31T20:16:34.290Z,21.60
2018-05-31T20:19:10.347Z,21.50
2018-05-31T20:21:46.048Z,21.70
2018-05-31T20:24:22.111Z,21.70
2018-05-31T20:26:57.891Z,21.60
2018-05-31T20:29:33.251Z,21.50
2018-05-31T20:32:09.004Z,21.60
2018-05-31T20:34:44.447Z,21.60
2018-05-31T20:37:19.743Z,21.50
2018-05-31T20:39:54.775Z,21.50
2018-05-31T20:42:30.637Z,21.50
2018-05-31T20:45:05.872Z,21.50
2018-05-31T20:47:41.592Z,21.40
2018-05-31T20:50:17.788Z,21.30
2018-05-31T20:52:52.823Z,21.30
2018-05-31T20:55:29.242Z,21.40
2018-05-31T20:58:04.731Z,21.40
2018-05-31T21:00:39.972Z,21.40
2018-05-31T21:03:15.825Z,21.40
2018-05-31T21:05:51.483Z,21.50
2018-05-31T21:08:26.307Z,21.40
2018-05-31T21:11:03.194Z,21.50
2018-05-31T21:13:38.337Z,21.40
2018-05-31T21:16:14.285Z,21.40
2018-05-31T21:18:49.113Z,21.20
2018-05-31T21:21:24.354Z,21.20
2018-05-31T21:24:00.165Z,21.30
2018-05-31T21:26:36.265Z,21.30
2018-05-31T21:29:12.130Z,21.30
2018-05-31T21:31:47.974Z,21.20
2018-05-31T21:34:25.610Z,21.30
2018-05-31T21:37:02.141Z,21.30
2018-05-31T21:39:38.813Z,21.30
2018-05-31T21:42:14.464Z,21.30
2018-05-31T21:44:49.317Z,21.30
2018-05-31T21:47:25.868Z,21.30
2018-05-31T21:50:04.476Z,21.30
2018-05-31T21:52:45.923Z,21.20
2018-05-31T21:55:26.224Z,21.20
2018-05-31T21:58:07.755Z,21.20
2018-05-31T22:00:51.669Z,21.20
2018-05-31T22:03:27.717Z,21.10
2018-05-31T22:06:03.570Z,21.10
2018-05-31T22:08:38.810Z,21.20
2018-05-31T22:11:15.290Z,21.20
2018-05-31T22:13:50.317Z,21.20
2018-05-31T22:16:26.169Z,21.20
2018-05-31T22:19:01.438Z,21.20
2018-05-31T22:21:37.265Z,21.20
2018-05-31T22:24:13.135Z,21.10
2018-05-31T22:26:49.589Z,21.10
2018-05-31T22:29:25.033Z,21.10
2018-05-31T22:31:59.813Z,21.00
2018-05-31T22:34:35.766Z,21.00
2018-05-31T22:37:11.164Z,21.00
2018-05-31T22:39:47.729Z,21.10
2018-05-31T22:42:22.970Z,21.10
2018-05-31T22:44:57.848Z,21.00
2018-05-31T22:47:33.664Z,21.10
2018-05-31T22:50:08.906Z,21.10
2018-05-31T22:52:45.372Z,21.10
2018-05-31T22:55:20.200Z,21.10
2018-05-31T22:57:55.028Z,21.20
2018-05-31T23:00:30.267Z,21.10
2018-05-31T23:03:05.918Z,21.10
2018-05-31T23:05:41.571Z,21.00
2018-05-31T23:08:16.657Z,21.10
2018-05-31T23:10:52.867Z,21.20
2018-05-31T23:13:28.726Z,21.20
2018-05-31T23:16:04.576Z,21.20
2018-05-31T23:18:40.023Z,21.10
2018-05-31T23:21:15.270Z,21.20
2018-05-31T23:23:51.317Z,21.10
2018-05-31T23:26:26.556Z,21.00
2018-05-31T23:29:01.591Z,21.10
2018-05-31T23:31:36.424Z,21.10
2018-05-31T23:34:11.978Z,21.10
2018-05-31T23:36:47.822Z,21.10
2018-05-31T23:39:22.866Z,21.10
2018-05-31T23:41:58.242Z,21.10
2018-05-31T23:44:33.541Z,21.10
2018-05-31T23:47:10.419Z,20.90
2018-05-31T23:49:45.864Z,20.90
2018-05-31T23:52:20.907Z,21.00
2018-05-31T23:54:57.573Z,21.10
2018-05-31T23:57:32.754Z,21.00
